sensor_id;sensor_type;location;lat;lon;timestamp;temperature;humidity
2002;DHT22;1003;48.002;7.788;2022-07-01T00:48:01;14.60;99.90
2002;DHT22;1003;48.002;7.788;2022-07-01T00:53:05;14.70;99.90
2002;DHT22;1003;48.002;7.788;2022-07-01T00:55:32;14.70;99.90
2002;DHT22;1003;48.002;7.788;2022-07-01T00:57:59;14.80;99.90
2002;DHT22;1003;48.002;7.788;2022-07-01T01:18:47;14.60;99.90
2002;DHT22;1003;48.002;7.788;2022-07-01T01:21:16;14.70;99.90
2002;DHT22;1003;48.002;7.788;2022-07-01T01:23:45;14.70;99.90
2002;DHT22;1003;48.002;7.788;2022-07-01T01:41:09;14.40;99.90
2002;DHT22;1003;48.002;7.788;2022-07-01T01:43:36;14.60;99.90
2002;DHT22;1003;48.002;7.788;2022-07-01T03:55:37;14.30;99.90
2002;DHT22;1003;48.002;7.788;2022-07-01T05:10:04;14.20;99.90
2002;DHT22;1003;48.002;7.788;2022-07-01T05:12:32;14.50;99.90
2002;DHT22;1003;48.002;7.788;2022-07-01T05:14:59;14.30;99.90
2002;DHT22;1003;48.002;7.788;2022-07-01T05:17:26;14.40;99.90
2002;DHT22;1003;48.002;7.788;2022-07-01T05:20:15;14.40;99.90
2002;DHT22;1003;48.002;7.788;2022-07-01T06:37:33;14.60;99.90
2002;DHT22;1003;48.002;7.788;2022-07-01T06:45:01;14.30;99.90
2002;DHT22;1003;48.002;7.788;2022-07-01T06:49:56;14.60;99.90
2002;DHT22;1003;48.002;7.788;2022-07-01T06:54:52;14.80;99.90
2002;DHT22;1003;48.002;7.788;2022-07-01T06:57:19;14.70;99.90
2002;DHT22;1003;48.002;7.788;2022-07-01T07:02:19;14.80;99.90
2002;DHT22;1003;48.002;7.788;2022-07-01T07:04:48;15.00;99.90
2002;DHT22;1003;48.002;7.788;2022-07-01T07:07:16;15.00;99.90
2002;DHT22;1003;48.002;7.788;2022-07-01T07:09:45;14.90;99.90
2002;DHT22;1003;48.002;7.788;2022-07-01T07:12:14;15.00;99.90
2002;DHT22;1003;48.002;7.788;2022-07-01T07:14:43;15.00;99.90
2002;DHT22;1003;48.002;7.788;2022-07-01T07:17:11;15.00;99.90
2002;DHT22;1003;48.002;7.788;2022-07-01T07:19:38;15.20;99.90
2002;DHT22;1003;48.002;7.788;2022-07-01T07:27:03;14.90;99.90
2002;DHT22;1003;48.002;7.788;2022-07-01T07:29:30;15.20;99.90
2002;DHT22;1003;48.002;7.788;2022-07-01T07:31:57;15.30;99.90
2002;DHT22;1003;48.002;7.788;2022-07-01T07:34:26;15.40;99.90
2002;DHT22;1003;48.002;7.788;2022-07-01T07:36:53;15.50;99.90
2002;DHT22;1003;48.002;7.788;2022-07-01T07:39:20;15.50;99.90
2002;DHT22;1003;48.002;7.788;2022-07-01T07:41:47;15.40;99.90
2002;DHT22;1003;48.002;7.788;2022-07-01T07:44:15;15.80;99.90
2002;DHT22;1003;48.002;7.788;2022-07-01T07:49:09;15.60;99.90
2002;DHT22;1003;48.002;7.788;2022-07-01T07:51:38;15.80;99.90
2002;DHT22;1003;48.002;7.788;2022-07-01T07:54:05;15.80;99.90
2002;DHT22;1003;48.002;7.788;2022-07-01T07:56:32;15.90;99.90
2002;DHT22;1003;48.002;7.788;2022-07-01T07:58:59;16.30;99.90
2002;DHT22;1003;48.002;7.788;2022-07-01T08:01:26;16.10;99.90
2002;DHT22;1003;48.002;7.788;2022-07-01T08:03:53;15.80;99.90
2002;DHT22;1003;48.002;7.788;2022-07-01T08:06:20;15.90;99.90
2002;DHT22;1003;48.002;7.788;2022-07-01T08:08:49;16.00;99.90
2002;DHT22;1003;48.002;7.788;2022-07-01T08:11:16;16.20;99.90
2002;DHT22;1003;48.002;7.788;2022-07-01T08:13:43;16.00;99.90
2002;DHT22;1003;48.002;7.788;2022-07-01T08:16:11;16.30;99.90
2002;DHT22;1003;48.002;7.788;2022-07-01T08:18:38;16.50;99.90
2002;DHT22;1003;48.002;7.788;2022-07-01T08:21:05;16.30;99.90
2002;DHT22;1003;48.002;7.788;2022-07-01T08:23:32;16.50;99.90
2002;DHT22;1003;48.002;7.788;2022-07-01T08:26:03;16.40;99.90
2002;DHT22;1003;48.002;7.788;2022-07-01T08:28:30;16.70;99.90
2002;DHT22;1003;48.002;7.788;2022-07-01T08:30:58;16.30;99.90
2002;DHT22;1003;48.002;7.788;2022-07-01T08:33:25;16.30;99.90
2002;DHT22;1003;48.002;7.788;2022-07-01T08:35:52;16.40;99.90
2002;DHT22;1003;48.002;7.788;2022-07-01T08:38:19;16.90;99.90
2002;DHT22;1003;48.002;7.788;2022-07-01T08:40:47;17.10;99.90
2002;DHT22;1003;48.002;7.788;2022-07-01T08:43:15;17.00;99.90
2002;DHT22;1003;48.002;7.788;2022-07-01T08:45:42;17.50;99.90
2002;DHT22;1003;48.002;7.788;2022-07-01T08:48:09;17.50;99.90
2002;DHT22;1003;48.002;7.788;2022-07-01T08:50:38;17.50;99.90
2002;DHT22;1003;48.002;7.788;2022-07-01T08:53:07;17.60;99.90
2002;DHT22;1003;48.002;7.788;2022-07-01T08:55:36;17.70;99.90
2002;DHT22;1003;48.002;7.788;2022-07-01T08:58:26;18.40;99.90
2002;DHT22;1003;48.002;7.788;2022-07-01T09:01:12;18.60;99.90
2002;DHT22;1003;48.002;7.788;2022-07-01T09:03:40;18.90;99.90
2002;DHT22;1003;48.002;7.788;2022-07-01T09:06:12;18.90;99.90
2002;DHT22;1003;48.002;7.788;2022-07-01T09:08:41;18.90;99.90
2002;DHT22;1003;48.002;7.788;2022-07-01T09:11:12;19.20;99.90
2002;DHT22;1003;48.002;7.788;2022-07-01T09:13:43;19.40;99.90
2002;DHT22;1003;48.002;7.788;2022-07-01T09:16:13;19.30;99.90
2002;DHT22;1003;48.002;7.788;2022-07-01T09:18:59;19.60;99.90
2002;DHT22;1003;48.002;7.788;2022-07-01T09:21:28;19.80;99.90
2002;DHT22;1003;48.002;7.788;2022-07-01T09:23:56;20.60;99.90
2002;DHT22;1003;48.002;7.788;2022-07-01T09:26:24;21.10;99.90
2002;DHT22;1003;48.002;7.788;2022-07-01T09:28:54;21.30;99.90
2002;DHT22;1003;48.002;7.788;2022-07-01T09:31:31;21.00;99.90
2002;DHT22;1003;48.002;7.788;2022-07-01T09:34:05;20.90;99.90
2002;DHT22;1003;48.002;7.788;2022-07-01T09:36:33;20.80;99.90
2002;DHT22;1003;48.002;7.788;2022-07-01T09:39:06;20.50;99.90
2002;DHT22;1003;48.002;7.788;2022-07-01T09:41:37;20.70;99.90
2002;DHT22;1003;48.002;7.788;2022-07-01T09:44:09;20.60;99.90
2002;DHT22;1003;48.002;7.788;2022-07-01T09:46:36;20.40;99.90
2002;DHT22;1003;48.002;7.788;2022-07-01T09:49:03;20.30;99.90
2002;DHT22;1003;48.002;7.788;2022-07-01T09:51:30;20.30;99.90
2002;DHT22;1003;48.002;7.788;2022-07-01T09:53:57;20.50;99.90
2002;DHT22;1003;48.002;7.788;2022-07-01T09:56:25;20.50;99.90
2002;DHT22;1003;48.002;7.788;2022-07-01T09:58:52;20.30;99.90
2002;DHT22;1003;48.002;7.788;2022-07-01T10:01:24;20.10;99.90
2002;DHT22;1003;48.002;7.788;2022-07-01T10:03:55;19.90;99.90
2002;DHT22;1003;48.002;7.788;2022-07-01T10:06:34;20.20;99.90
2002;DHT22;1003;48.002;7.788;2022-07-01T10:12:38;19.90;99.90
2002;DHT22;1003;48.002;7.788;2022-07-01T10:15:09;20.30;99.90
2002;DHT22;1003;48.002;7.788;2022-07-01T10:17:45;20.10;99.90
2002;DHT22;1003;48.002;7.788;2022-07-01T10:20:16;20.00;99.90
2002;DHT22;1003;48.002;7.788;2022-07-01T10:22:45;20.10;99.90
2002;DHT22;1003;48.002;7.788;2022-07-01T10:25:40;20.00;99.90
2002;DHT22;1003;48.002;7.788;2022-07-01T10:28:21;20.00;99.90
2002;DHT22;1003;48.002;7.788;2022-07-01T10:30:54;20.00;99.90
2002;DHT22;1003;48.002;7.788;2022-07-01T10:33:37;20.20;99.90
2002;DHT22;1003;48.002;7.788;2022-07-01T10:36:08;19.80;99.90
2002;DHT22;1003;48.002;7.788;2022-07-01T10:39:08;20.60;99.90
2002;DHT22;1003;48.002;7.788;2022-07-01T10:42:01;21.10;99.90
2002;DHT22;1003;48.002;7.788;2022-07-01T10:44:31;20.70;99.90
2002;DHT22;1003;48.002;7.788;2022-07-01T10:47:04;20.80;99.90
2002;DHT22;1003;48.002;7.788;2022-07-01T10:49:54;20.80;99.90
2002;DHT22;1003;48.002;7.788;2022-07-01T10:52:25;20.80;99.90
2002;DHT22;1003;48.002;7.788;2022-07-01T10:54:54;20.60;99.90
2002;DHT22;1003;48.002;7.788;2022-07-01T10:57:29;20.70;99.90
2002;DHT22;1003;48.002;7.788;2022-07-01T11:00:26;21.00;99.90
2002;DHT22;1003;48.002;7.788;2022-07-01T11:03:15;20.60;99.90
2002;DHT22;1003;48.002;7.788;2022-07-01T11:05:47;21.10;99.90
2002;DHT22;1003;48.002;7.788;2022-07-01T11:08:17;21.10;99.90
2002;DHT22;1003;48.002;7.788;2022-07-01T11:10:44;21.80;99.90
2002;DHT22;1003;48.002;7.788;2022-07-01T11:13:16;21.90;99.90
2002;DHT22;1003;48.002;7.788;2022-07-01T11:15:45;21.80;99.90
2002;DHT22;1003;48.002;7.788;2022-07-01T11:18:14;21.30;99.90
2002;DHT22;1003;48.002;7.788;2022-07-01T11:20:42;21.60;99.90
2002;DHT22;1003;48.002;7.788;2022-07-01T11:23:11;21.90;99.90
2002;DHT22;1003;48.002;7.788;2022-07-01T11:25:39;21.50;99.90
2002;DHT22;1003;48.002;7.788;2022-07-01T11:28:07;21.60;99.90
2002;DHT22;1003;48.002;7.788;2022-07-01T11:30:34;21.50;99.90
2002;DHT22;1003;48.002;7.788;2022-07-01T11:33:01;21.80;99.90
2002;DHT22;1003;48.002;7.788;2022-07-01T11:35:30;21.90;99.90
2002;DHT22;1003;48.002;7.788;2022-07-01T11:38:18;21.50;99.90
2002;DHT22;1003;48.002;7.788;2022-07-01T11:41:06;21.80;99.90
2002;DHT22;1003;48.002;7.788;2022-07-01T11:43:35;22.10;99.90
2002;DHT22;1003;48.002;7.788;2022-07-01T11:46:05;22.20;99.90
2002;DHT22;1003;48.002;7.788;2022-07-01T11:48:36;22.20;99.90
2002;DHT22;1003;48.002;7.788;2022-07-01T11:51:10;22.40;99.90
2002;DHT22;1003;48.002;7.788;2022-07-01T11:53:42;22.30;99.90
2002;DHT22;1003;48.002;7.788;2022-07-01T11:56:11;22.00;99.90
2002;DHT22;1003;48.002;7.788;2022-07-01T11:58:43;22.20;99.90
2002;DHT22;1003;48.002;7.788;2022-07-01T12:01:23;21.80;99.90
2002;DHT22;1003;48.002;7.788;2022-07-01T12:08:54;21.10;99.90
2002;DHT22;1003;48.002;7.788;2022-07-01T12:11:23;20.90;99.90
2002;DHT22;1003;48.002;7.788;2022-07-01T12:13:53;20.70;99.90
2002;DHT22;1003;48.002;7.788;2022-07-01T12:21:20;20.80;99.90
2002;DHT22;1003;48.002;7.788;2022-07-01T12:24:12;20.90;99.90
2002;DHT22;1003;48.002;7.788;2022-07-01T14:42:10;23.30;99.90
2002;DHT22;1003;48.002;7.788;2022-07-01T14:44:37;23.50;99.90
2002;DHT22;1003;48.002;7.788;2022-07-01T14:47:04;22.80;99.90
2002;DHT22;1003;48.002;7.788;2022-07-01T14:49:32;22.70;99.90
2002;DHT22;1003;48.002;7.788;2022-07-01T14:52:01;22.90;99.90
2002;DHT22;1003;48.002;7.788;2022-07-01T14:54:30;23.00;99.90
2002;DHT22;1003;48.002;7.788;2022-07-01T14:56:57;23.10;99.90
2002;DHT22;1003;48.002;7.788;2022-07-01T14:59:24;23.40;99.90
2002;DHT22;1003;48.002;7.788;2022-07-01T15:01:51;23.30;99.90
2002;DHT22;1003;48.002;7.788;2022-07-01T15:04:20;23.20;99.90
2002;DHT22;1003;48.002;7.788;2022-07-01T15:06:47;23.30;99.90
2002;DHT22;1003;48.002;7.788;2022-07-01T15:09:14;23.30;99.90
2002;DHT22;1003;48.002;7.788;2022-07-01T15:11:46;23.40;99.90
2002;DHT22;1003;48.002;7.788;2022-07-01T15:14:13;23.20;99.90
2002;DHT22;1003;48.002;7.788;2022-07-01T15:16:40;23.50;99.90
2002;DHT22;1003;48.002;7.788;2022-07-01T15:19:07;23.60;99.90
2002;DHT22;1003;48.002;7.788;2022-07-01T15:21:34;23.50;99.90
2002;DHT22;1003;48.002;7.788;2022-07-01T15:24:02;23.40;99.90
2002;DHT22;1003;48.002;7.788;2022-07-01T15:26:29;23.30;99.90
2002;DHT22;1003;48.002;7.788;2022-07-01T15:28:58;23.30;99.90
2002;DHT22;1003;48.002;7.788;2022-07-01T15:31:25;23.40;99.90
2002;DHT22;1003;48.002;7.788;2022-07-01T15:33:53;23.50;99.90
2002;DHT22;1003;48.002;7.788;2022-07-01T15:36:20;23.40;99.90
2002;DHT22;1003;48.002;7.788;2022-07-01T15:38:47;23.20;99.90
2002;DHT22;1003;48.002;7.788;2022-07-01T15:41:15;23.20;99.90
2002;DHT22;1003;48.002;7.788;2022-07-01T15:43:43;22.80;99.90
2002;DHT22;1003;48.002;7.788;2022-07-01T15:46:11;23.00;99.90
2002;DHT22;1003;48.002;7.788;2022-07-01T15:48:39;22.90;99.90
2002;DHT22;1003;48.002;7.788;2022-07-01T15:51:06;23.00;99.90
2002;DHT22;1003;48.002;7.788;2022-07-01T15:53:33;23.10;99.90
2002;DHT22;1003;48.002;7.788;2022-07-01T15:56:01;22.90;99.90
2002;DHT22;1003;48.002;7.788;2022-07-01T15:58:28;23.00;99.90
2002;DHT22;1003;48.002;7.788;2022-07-01T16:00:57;22.70;99.90
2002;DHT22;1003;48.002;7.788;2022-07-01T16:03:26;22.40;99.90
2002;DHT22;1003;48.002;7.788;2022-07-01T16:05:57;22.00;99.90
2002;DHT22;1003;48.002;7.788;2022-07-01T16:08:31;21.80;99.90
2002;DHT22;1003;48.002;7.788;2022-07-01T16:11:06;21.70;99.90
2002;DHT22;1003;48.002;7.788;2022-07-01T16:13:37;21.50;99.90
2002;DHT22;1003;48.002;7.788;2022-07-01T16:16:06;21.30;99.90
2002;DHT22;1003;48.002;7.788;2022-07-01T16:18:37;21.30;99.90
2002;DHT22;1003;48.002;7.788;2022-07-01T16:21:05;21.00;99.90
2002;DHT22;1003;48.002;7.788;2022-07-01T16:23:34;20.90;99.90
2002;DHT22;1003;48.002;7.788;2022-07-01T16:26:02;20.80;99.90
2002;DHT22;1003;48.002;7.788;2022-07-01T16:28:30;20.60;99.90
2002;DHT22;1003;48.002;7.788;2022-07-01T16:30:58;20.90;99.90
2002;DHT22;1003;48.002;7.788;2022-07-01T16:33:26;20.90;99.90
2002;DHT22;1003;48.002;7.788;2022-07-01T16:36:02;21.10;99.90
2002;DHT22;1003;48.002;7.788;2022-07-01T16:38:42;21.10;99.90
2002;DHT22;1003;48.002;7.788;2022-07-01T16:41:19;21.10;99.90
2002;DHT22;1003;48.002;7.788;2022-07-01T16:43:56;20.90;99.90
2002;DHT22;1003;48.002;7.788;2022-07-01T16:46:31;21.10;99.90
2002;DHT22;1003;48.002;7.788;2022-07-01T16:49:07;21.10;99.90
2002;DHT22;1003;48.002;7.788;2022-07-01T16:51:41;21.40;99.90
2002;DHT22;1003;48.002;7.788;2022-07-01T16:54:13;21.20;99.90
2002;DHT22;1003;48.002;7.788;2022-07-01T16:56:46;21.20;99.90
2002;DHT22;1003;48.002;7.788;2022-07-01T16:59:17;21.20;99.90
2002;DHT22;1003;48.002;7.788;2022-07-01T17:01:46;20.90;99.90
2002;DHT22;1003;48.002;7.788;2022-07-01T17:04:14;21.20;99.90
2002;DHT22;1003;48.002;7.788;2022-07-01T17:06:44;21.00;99.90
2002;DHT22;1003;48.002;7.788;2022-07-01T17:09:12;20.80;99.90
2002;DHT22;1003;48.002;7.788;2022-07-01T17:11:42;20.90;99.90
2002;DHT22;1003;48.002;7.788;2022-07-01T17:14:09;21.00;99.90
2002;DHT22;1003;48.002;7.788;2022-07-01T17:16:39;21.00;99.90
2002;DHT22;1003;48.002;7.788;2022-07-01T17:19:07;21.00;99.90
2002;DHT22;1003;48.002;7.788;2022-07-01T17:21:37;20.80;99.90
2002;DHT22;1003;48.002;7.788;2022-07-01T17:24:09;20.80;99.90
2002;DHT22;1003;48.002;7.788;2022-07-01T17:26:46;20.70;99.90
2002;DHT22;1003;48.002;7.788;2022-07-01T17:29:24;21.10;99.90
2002;DHT22;1003;48.002;7.788;2022-07-01T17:32:01;21.00;99.90
2002;DHT22;1003;48.002;7.788;2022-07-01T17:34:31;21.00;99.90
2002;DHT22;1003;48.002;7.788;2022-07-01T17:37:00;21.20;99.90
2002;DHT22;1003;48.002;7.788;2022-07-01T17:39:33;21.30;99.90
2002;DHT22;1003;48.002;7.788;2022-07-01T17:42:03;21.30;99.90
2002;DHT22;1003;48.002;7.788;2022-07-01T17:44:30;21.40;99.90
2002;DHT22;1003;48.002;7.788;2022-07-01T17:46:58;21.10;99.90
2002;DHT22;1003;48.002;7.788;2022-07-01T17:49:28;20.90;99.90
2002;DHT22;1003;48.002;7.788;2022-07-01T17:51:59;20.90;99.90
2002;DHT22;1003;48.002;7.788;2022-07-01T17:54:30;20.90;99.90
2002;DHT22;1003;48.002;7.788;2022-07-01T17:56:59;20.80;99.90
2002;DHT22;1003;48.002;7.788;2022-07-01T17:59:29;21.00;99.90
2002;DHT22;1003;48.002;7.788;2022-07-01T18:01:57;20.90;99.90
2002;DHT22;1003;48.002;7.788;2022-07-01T18:04:27;20.80;99.90
2002;DHT22;1003;48.002;7.788;2022-07-01T18:06:55;21.00;99.90
2002;DHT22;1003;48.002;7.788;2022-07-01T18:09:23;20.70;99.90
2002;DHT22;1003;48.002;7.788;2022-07-01T18:11:58;20.60;99.90
2002;DHT22;1003;48.002;7.788;2022-07-01T18:14:45;20.70;99.90
2002;DHT22;1003;48.002;7.788;2022-07-01T18:17:21;20.90;99.90
2002;DHT22;1003;48.002;7.788;2022-07-01T18:20:03;20.60;99.90
2002;DHT22;1003;48.002;7.788;2022-07-01T18:22:38;20.60;99.90
2002;DHT22;1003;48.002;7.788;2022-07-01T18:25:07;20.60;99.90
2002;DHT22;1003;48.002;7.788;2022-07-01T18:27:39;20.70;99.90
2002;DHT22;1003;48.002;7.788;2022-07-01T18:30:09;20.50;99.90
2002;DHT22;1003;48.002;7.788;2022-07-01T18:32:39;20.30;99.90
2002;DHT22;1003;48.002;7.788;2022-07-01T18:35:08;20.50;99.90
2002;DHT22;1003;48.002;7.788;2022-07-01T18:37:42;20.50;99.90
2002;DHT22;1003;48.002;7.788;2022-07-01T18:40:12;20.30;99.90
2002;DHT22;1003;48.002;7.788;2022-07-01T18:42:42;20.10;99.90
2002;DHT22;1003;48.002;7.788;2022-07-01T18:45:10;20.20;99.90
2002;DHT22;1003;48.002;7.788;2022-07-01T18:47:39;20.10;99.90
2002;DHT22;1003;48.002;7.788;2022-07-01T18:50:09;20.00;99.90
2002;DHT22;1003;48.002;7.788;2022-07-01T18:52:37;20.20;99.90
2002;DHT22;1003;48.002;7.788;2022-07-01T18:55:05;19.90;99.90
2002;DHT22;1003;48.002;7.788;2022-07-01T18:57:37;19.70;99.90
2002;DHT22;1003;48.002;7.788;2022-07-01T19:00:09;19.70;99.90
